createdAt,value
2019-02-28T00:01:46.278Z,994.57
2019-02-28T00:03:44.336Z,994.62
2019-02-28T00:05:43.960Z,994.44
2019-02-28T00:07:43.772Z,994.48
2019-02-28T00:09:44.196Z,994.87
2019-02-28T00:11:43.867Z,994.52
2019-02-28T00:13:43.974Z,994.60
2019-02-28T00:15:43.866Z,994.69
2019-02-28T00:17:43.977Z,994.49
2019-02-28T00:19:44.039Z,994.69
2019-02-28T00:21:44.057Z,994.64
2019-02-28T00:23:44.008Z,994.41
2019-02-28T00:25:43.676Z,994.37
2019-02-28T00:27:44.100Z,994.46
2019-02-28T00:29:43.897Z,994.25
2019-02-28T00:31:49.527Z,994.29
2019-02-28T00:33:43.927Z,994.34
2019-02-28T00:35:44.652Z,994.24
2019-02-28T00:37:43.720Z,994.36
2019-02-28T00:39:44.054Z,994.56
2019-02-28T00:41:44.740Z,994.13
2019-02-28T00:43:43.646Z,994.01
2019-02-28T00:45:43.882Z,993.93
2019-02-28T00:47:43.970Z,994.54
2019-02-28T00:49:44.012Z,994.01
2019-02-28T00:51:44.020Z,993.77
2019-02-28T00:53:43.763Z,993.78
2019-02-28T00:55:45.936Z,994.24
2019-02-28T00:57:44.271Z,994.28
2019-02-28T00:59:43.970Z,993.89
2019-02-28T01:01:45.986Z,994.24
2019-02-28T01:03:43.846Z,993.98
2019-02-28T01:05:43.804Z,994.05
2019-02-28T01:07:43.922Z,994.10
2019-02-28T01:09:43.683Z,993.90
2019-02-28T01:11:44.797Z,993.92
2019-02-28T01:13:43.842Z,993.63
2019-02-28T01:15:45.054Z,993.93
2019-02-28T01:17:44.083Z,994.05
2019-02-28T01:19:43.759Z,994.11
2019-02-28T01:21:43.894Z,993.99
2019-02-28T01:23:43.694Z,994.20
2019-02-28T01:25:43.656Z,993.63
2019-02-28T01:27:43.869Z,994.13
2019-02-28T01:29:44.009Z,993.68
2019-02-28T01:31:43.945Z,994.06
2019-02-28T01:33:43.903Z,993.81
2019-02-28T01:35:43.997Z,994.01
2019-02-28T01:37:44.071Z,993.70
2019-02-28T01:39:43.829Z,993.70
2019-02-28T01:41:45.265Z,994.05
2019-02-28T01:43:43.879Z,993.72
2019-02-28T01:45:44.366Z,993.73
2019-02-28T01:47:43.733Z,993.29
2019-02-28T01:49:43.704Z,993.68
2019-02-28T01:51:43.974Z,993.98
2019-02-28T01:53:43.772Z,994.01
2019-02-28T01:55:43.938Z,993.69
2019-02-28T01:57:44.494Z,993.86
2019-02-28T01:59:43.862Z,993.62
2019-02-28T02:01:43.923Z,993.70
2019-02-28T02:03:44.135Z,993.63
2019-02-28T02:05:43.943Z,993.50
2019-02-28T02:07:43.746Z,993.64
2019-02-28T02:09:46.162Z,993.58
2019-02-28T02:11:43.994Z,993.80
2019-02-28T02:13:43.789Z,993.63
2019-02-28T02:15:44.414Z,993.67
2019-02-28T02:17:44.014Z,993.62
2019-02-28T02:19:44.028Z,993.55
2019-02-28T02:21:43.888Z,993.39
2019-02-28T02:23:43.742Z,993.19
2019-02-28T02:25:44.368Z,993.30
2019-02-28T02:27:44.374Z,993.41
2019-02-28T02:29:43.929Z,993.24
2019-02-28T02:31:44.407Z,993.32
2019-02-28T02:33:51.109Z,993.10
2019-02-28T02:35:43.952Z,992.73
2019-02-28T02:37:44.027Z,992.96
2019-02-28T02:39:43.998Z,993.27
2019-02-28T02:41:43.845Z,992.94
2019-02-28T02:43:44.266Z,992.98
2019-02-28T02:45:44.076Z,993.19
2019-02-28T02:47:43.883Z,993.04
2019-02-28T02:49:43.868Z,992.76
2019-02-28T02:51:49.082Z,993.02
2019-02-28T02:53:43.738Z,993.00
2019-02-28T02:55:43.789Z,993.24
2019-02-28T02:57:50.697Z,992.92
2019-02-28T02:59:44.047Z,993.12
2019-02-28T03:01:44.011Z,992.99
2019-02-28T03:03:44.504Z,993.03
2019-02-28T03:05:44.185Z,992.71
2019-02-28T03:07:43.823Z,993.02
2019-02-28T03:09:44.740Z,992.95
2019-02-28T03:11:43.996Z,992.38
2019-02-28T03:13:44.322Z,993.22
2019-02-28T03:15:44.218Z,993.09
2019-02-28T03:17:47.111Z,993.12
2019-02-28T03:19:43.947Z,993.29
2019-02-28T03:21:51.080Z,993.24
2019-02-28T03:23:43.988Z,992.88
2019-02-28T03:25:43.798Z,993.06
2019-02-28T03:27:44.215Z,992.95
2019-02-28T03:29:45.684Z,992.59
2019-02-28T03:31:55.271Z,992.54
2019-02-28T03:33:43.942Z,992.92
2019-02-28T03:35:44.365Z,992.59
2019-02-28T03:37:44.082Z,992.81
2019-02-28T03:39:44.503Z,992.88
2019-02-28T03:41:44.042Z,992.83
2019-02-28T03:43:44.192Z,992.23
2019-02-28T03:45:43.997Z,992.70
2019-02-28T03:47:43.919Z,992.58
2019-02-28T03:49:48.610Z,992.99
2019-02-28T03:51:44.468Z,992.41
2019-02-28T03:53:43.852Z,992.71
2019-02-28T03:55:44.071Z,992.79
2019-02-28T03:57:44.290Z,992.87
2019-02-28T03:59:43.848Z,992.76
2019-02-28T04:01:45.508Z,992.83
2019-02-28T04:03:43.765Z,992.67
2019-02-28T04:05:43.928Z,992.45
2019-02-28T04:07:43.933Z,992.40
2019-02-28T04:09:45.141Z,992.45
2019-02-28T04:11:44.161Z,992.59
2019-02-28T04:13:44.187Z,992.27
2019-02-28T04:16:01.506Z,992.71
2019-02-28T04:17:43.790Z,992.46
2019-02-28T04:19:44.008Z,992.59
2019-02-28T04:21:46.571Z,992.57
2019-02-28T04:23:45.639Z,992.72
2019-02-28T04:25:43.836Z,992.55
2019-02-28T04:27:44.070Z,992.34
2019-02-28T04:29:43.873Z,992.51
2019-02-28T04:31:43.877Z,992.85
2019-02-28T04:33:43.763Z,992.36
2019-02-28T04:35:43.789Z,992.47
2019-02-28T04:37:46.765Z,992.41
2019-02-28T04:39:44.111Z,992.44
2019-02-28T04:41:44.128Z,992.38
2019-02-28T04:43:44.382Z,992.40
2019-02-28T04:45:44.342Z,992.65
2019-02-28T04:47:44.070Z,992.46
2019-02-28T04:49:43.987Z,992.24
2019-02-28T04:51:44.084Z,992.86
2019-02-28T04:53:44.318Z,992.52
2019-02-28T04:55:44.101Z,992.43
2019-02-28T04:57:44.074Z,992.37
2019-02-28T04:59:43.779Z,992.46
2019-02-28T05:01:46.205Z,992.33
2019-02-28T05:03:44.032Z,992.63
2019-02-28T05:05:46.441Z,992.14
2019-02-28T05:07:44.049Z,992.53
2019-02-28T05:09:45.322Z,992.43
2019-02-28T05:11:43.998Z,992.12
2019-02-28T05:13:48.236Z,992.31
2019-02-28T05:15:43.827Z,992.10
2019-02-28T05:17:44.134Z,992.20
2019-02-28T05:19:44.247Z,992.20
2019-02-28T05:21:44.056Z,992.79
2019-02-28T05:23:43.864Z,992.10
2019-02-28T05:25:44.075Z,992.34
2019-02-28T05:27:44.101Z,992.39
2019-02-28T05:29:44.803Z,992.51
2019-02-28T05:31:44.113Z,992.10
2019-02-28T05:33:44.235Z,992.26
2019-02-28T05:35:44.139Z,992.39
2019-02-28T05:37:48.281Z,992.28
2019-02-28T05:39:44.133Z,992.16
2019-02-28T05:41:49.163Z,992.41
2019-02-28T05:43:44.151Z,992.56
2019-02-28T05:45:48.753Z,992.51
2019-02-28T05:47:46.796Z,992.44
2019-02-28T05:49:43.872Z,992.66
2019-02-28T05:51:43.885Z,992.51
2019-02-28T05:53:44.042Z,992.82
2019-02-28T05:55:44.117Z,992.31
2019-02-28T05:57:44.777Z,992.59
2019-02-28T05:59:44.274Z,992.69
2019-02-28T06:01:47.096Z,992.64
2019-02-28T06:03:44.207Z,992.45
2019-02-28T06:05:46.294Z,992.63
2019-02-28T06:07:43.816Z,992.68
2019-02-28T06:09:45.608Z,992.88
2019-02-28T06:11:44.022Z,992.46
2019-02-28T06:13:43.958Z,992.66
2019-02-28T06:15:44.574Z,992.77
2019-02-28T06:17:43.934Z,992.36
2019-02-28T06:19:44.298Z,992.47
2019-02-28T06:21:44.301Z,992.59
2019-02-28T06:23:43.832Z,992.64
2019-02-28T06:25:46.737Z,992.52
2019-02-28T06:27:49.161Z,992.86
2019-02-28T06:29:44.042Z,992.59
2019-02-28T06:31:45.542Z,992.62
2019-02-28T06:33:44.051Z,992.61
2019-02-28T06:35:43.978Z,992.72
2019-02-28T06:37:44.190Z,992.99
2019-02-28T06:39:43.959Z,992.32
2019-02-28T06:41:44.319Z,992.51
2019-02-28T06:43:46.728Z,992.78
2019-02-28T06:45:43.860Z,992.45
2019-02-28T06:47:48.026Z,992.55
2019-02-28T06:49:43.753Z,992.35
2019-02-28T06:51:43.981Z,992.62
2019-02-28T06:53:44.044Z,992.51
2019-02-28T06:55:46.505Z,992.30
2019-02-28T06:57:43.904Z,993.05
2019-02-28T06:59:44.433Z,992.66
2019-02-28T07:01:43.871Z,992.51
2019-02-28T07:03:53.123Z,992.68
2019-02-28T07:05:44.156Z,992.50
2019-02-28T07:07:45.645Z,992.80
2019-02-28T07:09:43.766Z,992.82
2019-02-28T07:11:44.047Z,992.91
2019-02-28T07:13:44.167Z,992.47
2019-02-28T07:15:43.942Z,992.88
2019-02-28T07:17:46.585Z,992.64
2019-02-28T07:19:44.314Z,992.66
2019-02-28T07:21:44.546Z,992.78
2019-02-28T07:23:44.154Z,992.66
2019-02-28T07:25:44.239Z,992.82
2019-02-28T07:27:44.388Z,992.58
2019-02-28T07:29:44.132Z,992.81
2019-02-28T07:31:43.885Z,992.69
2019-02-28T07:33:44.500Z,992.91
2019-02-28T07:35:44.042Z,993.09
2019-02-28T07:37:44.073Z,992.94
2019-02-28T07:39:44.346Z,992.81
2019-02-28T07:41:44.130Z,992.55
2019-02-28T07:43:46.102Z,992.66
2019-02-28T07:45:44.073Z,993.11
2019-02-28T07:47:44.091Z,992.63
2019-02-28T07:49:44.318Z,992.78
2019-02-28T07:51:44.108Z,992.57
2019-02-28T07:53:43.923Z,992.78
2019-02-28T07:55:43.845Z,992.64
2019-02-28T07:57:44.356Z,992.72
2019-02-28T07:59:44.122Z,992.42
2019-02-28T08:01:43.808Z,992.78
2019-02-28T08:03:44.900Z,992.88
2019-02-28T08:05:44.032Z,992.64
2019-02-28T08:07:50.432Z,992.55
2019-02-28T08:09:44.016Z,992.92
2019-02-28T08:11:44.773Z,992.46
2019-02-28T08:13:43.960Z,992.56
2019-02-28T08:15:44.460Z,992.56
2019-02-28T08:17:44.720Z,992.71
2019-02-28T08:19:44.476Z,992.34
2019-02-28T08:21:49.380Z,992.79
2019-02-28T08:23:44.090Z,992.51
2019-02-28T08:25:44.013Z,992.50
2019-02-28T08:27:44.209Z,992.37
2019-02-28T08:29:45.642Z,992.58
2019-02-28T08:31:44.017Z,992.58
2019-02-28T08:33:44.246Z,992.42
2019-02-28T08:35:44.475Z,992.44
2019-02-28T08:37:44.210Z,992.56
2019-02-28T08:39:44.064Z,992.72
2019-02-28T08:41:43.922Z,992.39
2019-02-28T08:43:44.634Z,992.25
2019-02-28T08:45:45.429Z,992.67
2019-02-28T08:47:44.197Z,992.65
2019-02-28T08:49:45.472Z,992.47
2019-02-28T08:51:44.220Z,992.57
2019-02-28T08:53:50.795Z,992.59
2019-02-28T08:55:44.435Z,992.47
2019-02-28T08:57:44.281Z,992.36
2019-02-28T08:59:44.075Z,992.45
2019-02-28T09:01:44.312Z,992.57
2019-02-28T09:03:44.324Z,992.22
2019-02-28T09:05:44.334Z,992.09
2019-02-28T09:07:44.142Z,992.20
2019-02-28T09:09:44.356Z,992.10
2019-02-28T09:11:44.261Z,992.27
2019-02-28T09:13:44.277Z,992.33
2019-02-28T09:15:44.072Z,992.25
2019-02-28T09:17:44.062Z,992.08
2019-02-28T09:19:44.243Z,992.26
2019-02-28T09:21:44.264Z,992.11
2019-02-28T09:23:44.331Z,992.17
2019-02-28T09:25:44.419Z,992.47
2019-02-28T09:27:44.197Z,992.32
2019-02-28T09:29:44.194Z,992.54
2019-02-28T09:31:44.290Z,992.23
2019-02-28T09:33:44.307Z,992.26
2019-02-28T09:35:46.385Z,992.34
2019-02-28T09:37:44.228Z,992.16
2019-02-28T09:39:44.533Z,992.24
2019-02-28T09:41:44.134Z,991.98
2019-02-28T09:43:44.151Z,991.91
2019-02-28T09:45:44.160Z,992.09
2019-02-28T09:47:44.373Z,992.09
2019-02-28T09:49:47.135Z,992.01
2019-02-28T09:51:44.397Z,992.30
2019-02-28T09:53:47.285Z,992.07
2019-02-28T09:55:44.325Z,992.00
2019-02-28T09:57:44.432Z,991.89
2019-02-28T09:59:44.134Z,992.06
2019-02-28T10:01:43.979Z,991.97
2019-02-28T10:03:44.250Z,992.18
2019-02-28T10:05:44.274Z,991.94
2019-02-28T10:07:44.299Z,992.03
2019-02-28T10:09:46.648Z,991.87
2019-02-28T10:11:44.210Z,991.93
2019-02-28T10:13:44.376Z,992.11
2019-02-28T10:15:44.555Z,992.03
2019-02-28T10:17:44.158Z,991.98
2019-02-28T10:19:45.975Z,991.83
2019-02-28T10:21:44.195Z,992.21
2019-02-28T10:23:44.476Z,992.15
2019-02-28T10:25:44.283Z,991.78
2019-02-28T10:27:44.505Z,992.01
2019-02-28T10:29:44.103Z,991.95
2019-02-28T10:31:44.122Z,991.95
2019-02-28T10:33:44.443Z,991.75
2019-02-28T10:35:44.241Z,992.08
2019-02-28T10:37:44.371Z,992.00
2019-02-28T10:39:44.272Z,991.99
2019-02-28T10:41:44.211Z,991.89
2019-02-28T10:43:49.357Z,991.65
2019-02-28T10:45:46.073Z,991.66
2019-02-28T10:47:44.102Z,991.80
2019-02-28T10:49:44.269Z,991.63
2019-02-28T10:51:44.722Z,991.47
2019-02-28T10:53:44.330Z,991.71
2019-02-28T10:55:44.293Z,991.97
2019-02-28T10:57:44.577Z,991.51
2019-02-28T10:59:46.186Z,991.84
2019-02-28T11:01:44.417Z,991.54
2019-02-28T11:03:44.501Z,991.67
2019-02-28T11:05:44.079Z,991.62
2019-02-28T11:07:46.128Z,991.71
2019-02-28T11:09:44.396Z,991.41
2019-02-28T11:11:45.617Z,991.58
2019-02-28T11:13:44.270Z,991.69
2019-02-28T11:15:47.964Z,991.63
2019-02-28T11:17:44.682Z,991.69
2019-02-28T11:19:44.401Z,991.49
2019-02-28T11:21:44.213Z,991.84
2019-02-28T11:23:46.521Z,991.72
2019-02-28T11:25:44.285Z,991.61
2019-02-28T11:27:44.273Z,991.86
2019-02-28T11:29:44.144Z,991.92
2019-02-28T11:31:44.527Z,991.55
2019-02-28T11:33:44.578Z,991.76
2019-02-28T11:35:44.280Z,991.66
2019-02-28T11:37:46.084Z,991.46
2019-02-28T11:39:44.727Z,991.73
2019-02-28T11:41:44.730Z,991.64
2019-02-28T11:43:44.334Z,991.86
2019-02-28T11:45:44.482Z,991.46
2019-02-28T11:47:44.158Z,991.66
2019-02-28T11:49:44.158Z,991.33
2019-02-28T11:51:44.689Z,991.26
2019-02-28T11:53:44.225Z,991.42
2019-02-28T11:55:44.703Z,991.48
2019-02-28T11:57:44.505Z,991.33
2019-02-28T11:59:44.243Z,991.42
2019-02-28T12:01:47.462Z,991.32
2019-02-28T12:03:44.193Z,991.27
2019-02-28T12:05:47.300Z,991.42
2019-02-28T12:07:44.272Z,991.18
2019-02-28T12:09:44.588Z,991.42
2019-02-28T12:11:44.518Z,991.38
2019-02-28T12:13:44.611Z,991.24
2019-02-28T12:15:44.320Z,991.41
2019-02-28T12:17:44.349Z,991.58
2019-02-28T12:19:44.209Z,991.12
2019-02-28T12:21:44.210Z,991.28
2019-02-28T12:23:44.456Z,991.09
2019-02-28T12:25:44.222Z,991.02
2019-02-28T12:27:44.444Z,990.83
2019-02-28T12:29:45.647Z,991.03
2019-02-28T12:31:44.511Z,991.08
2019-02-28T12:33:44.480Z,990.93
2019-02-28T12:35:44.339Z,990.75
2019-02-28T12:37:44.540Z,990.74
2019-02-28T12:39:44.558Z,990.68
2019-02-28T12:41:44.361Z,990.79
2019-02-28T12:43:44.268Z,990.69
2019-02-28T12:45:45.544Z,990.67
2019-02-28T12:47:45.858Z,990.58
2019-02-28T12:49:44.308Z,990.81
2019-02-28T12:51:44.733Z,990.53
2019-02-28T12:53:44.385Z,990.79
2019-02-28T12:55:44.251Z,990.72
2019-02-28T12:57:44.395Z,990.65
2019-02-28T12:59:45.862Z,990.61
2019-02-28T13:01:44.480Z,990.48
2019-02-28T13:03:44.431Z,990.51
2019-02-28T13:05:48.018Z,990.55
2019-02-28T13:07:44.232Z,990.65
2019-02-28T13:09:44.828Z,990.66
2019-02-28T13:11:44.235Z,990.51
2019-02-28T13:13:44.450Z,990.65
2019-02-28T13:15:45.399Z,990.61
2019-02-28T13:17:44.259Z,990.74
2019-02-28T13:19:44.586Z,990.67
2019-02-28T13:21:46.927Z,990.69
2019-02-28T13:23:44.540Z,990.53
2019-02-28T13:25:44.632Z,990.18
2019-02-28T13:27:45.323Z,990.27
2019-02-28T13:29:44.344Z,990.24
2019-02-28T13:31:44.356Z,990.08
2019-02-28T13:33:48.623Z,990.21
2019-02-28T13:35:46.836Z,990.45
2019-02-28T13:37:44.901Z,990.33
2019-02-28T13:39:44.779Z,990.36
2019-02-28T13:41:44.345Z,990.07
2019-02-28T13:43:44.418Z,990.30
2019-02-28T13:45:44.541Z,990.11
2019-02-28T13:47:46.349Z,990.14
2019-02-28T13:49:46.603Z,990.24
2019-02-28T13:51:44.502Z,989.95
2019-02-28T13:53:44.584Z,990.17
2019-02-28T13:55:44.743Z,990.52
2019-02-28T13:57:46.744Z,990.24
2019-02-28T13:59:44.615Z,990.00
2019-02-28T14:01:44.522Z,990.21
2019-02-28T14:03:46.015Z,990.07
2019-02-28T14:05:44.488Z,990.16
2019-02-28T14:07:44.289Z,990.23
2019-02-28T14:09:44.776Z,989.76
2019-02-28T14:11:45.175Z,990.06
2019-02-28T14:13:44.591Z,990.08
2019-02-28T14:15:48.094Z,990.04
2019-02-28T14:17:44.823Z,990.14
2019-02-28T14:19:44.581Z,990.06
2019-02-28T14:21:44.641Z,989.99
2019-02-28T14:23:44.535Z,990.12
2019-02-28T14:25:44.663Z,989.92
2019-02-28T14:27:44.520Z,989.93
2019-02-28T14:29:48.410Z,989.81
2019-02-28T14:31:44.435Z,989.87
2019-02-28T14:33:44.301Z,989.78
2019-02-28T14:35:44.526Z,989.84
2019-02-28T14:37:44.427Z,989.84
2019-02-28T14:39:44.752Z,989.77
2019-02-28T14:41:44.396Z,989.82
2019-02-28T14:43:44.466Z,989.64
2019-02-28T14:45:44.594Z,989.97
2019-02-28T14:47:44.607Z,989.87
2019-02-28T14:49:44.761Z,989.72
2019-02-28T14:51:44.559Z,989.96
2019-02-28T14:53:45.441Z,989.67
2019-02-28T14:55:45.249Z,989.86
2019-02-28T14:57:44.621Z,989.94
2019-02-28T14:59:44.558Z,989.37
2019-02-28T15:01:44.363Z,990.01
2019-02-28T15:03:44.389Z,989.69
2019-02-28T15:05:44.333Z,989.52
2019-02-28T15:07:44.399Z,989.78
2019-02-28T15:09:44.615Z,989.71
2019-02-28T15:11:47.063Z,989.94
2019-02-28T15:13:44.766Z,989.93
2019-02-28T15:15:44.862Z,989.89
2019-02-28T15:17:44.464Z,989.87
2019-02-28T15:19:44.497Z,989.57
2019-02-28T15:21:45.000Z,989.83
2019-02-28T15:23:44.555Z,990.07
2019-02-28T15:25:44.361Z,990.06
2019-02-28T15:27:44.720Z,990.05
2019-02-28T15:29:44.430Z,989.83
2019-02-28T15:31:44.602Z,990.14
2019-02-28T15:33:44.346Z,990.30
2019-02-28T15:35:46.545Z,990.31
2019-02-28T15:37:44.682Z,989.97
2019-02-28T15:39:44.698Z,990.18
2019-02-28T15:41:45.112Z,990.09
2019-02-28T15:43:44.724Z,990.11
2019-02-28T15:45:44.511Z,990.07
2019-02-28T15:47:45.070Z,990.11
2019-02-28T15:49:44.543Z,989.98
2019-02-28T15:51:44.376Z,989.94
2019-02-28T15:53:46.895Z,989.48
2019-02-28T15:55:44.601Z,989.94
2019-02-28T15:57:44.707Z,989.64
2019-02-28T15:59:46.705Z,989.55
2019-02-28T16:01:45.027Z,989.74
2019-02-28T16:03:45.041Z,989.79
2019-02-28T16:05:44.883Z,989.74
2019-02-28T16:07:44.445Z,989.82
2019-02-28T16:09:44.771Z,989.66
2019-02-28T16:11:44.987Z,989.87
2019-02-28T16:13:45.205Z,989.80
2019-02-28T16:15:46.350Z,989.73
2019-02-28T16:17:45.243Z,989.74
2019-02-28T16:19:45.028Z,989.81
2019-02-28T16:21:44.877Z,989.89
2019-02-28T16:23:45.070Z,989.51
2019-02-28T16:25:46.795Z,989.63
2019-02-28T16:27:45.179Z,989.53
2019-02-28T16:29:44.987Z,989.78
2019-02-28T16:31:45.084Z,989.84
2019-02-28T16:33:45.216Z,990.00
2019-02-28T16:35:46.657Z,990.14
2019-02-28T16:37:44.566Z,990.10
2019-02-28T16:39:44.836Z,990.14
2019-02-28T16:41:44.793Z,990.31
2019-02-28T16:43:45.096Z,990.27
2019-02-28T16:45:45.186Z,990.51
2019-02-28T16:47:44.987Z,990.43
2019-02-28T16:49:45.199Z,990.77
2019-02-28T16:51:45.230Z,990.74
2019-02-28T16:53:48.203Z,990.35
2019-02-28T16:55:45.043Z,990.61
2019-02-28T16:57:47.081Z,990.76
2019-02-28T16:59:45.000Z,990.56
2019-02-28T17:01:44.973Z,990.70
2019-02-28T17:03:45.185Z,990.97
2019-02-28T17:05:44.990Z,990.79
2019-02-28T17:07:45.085Z,990.73
2019-02-28T17:09:45.356Z,990.66
2019-02-28T17:11:44.822Z,990.71
2019-02-28T17:13:45.142Z,990.60
2019-02-28T17:15:45.153Z,990.68
2019-02-28T17:17:47.080Z,990.61
2019-02-28T17:19:45.180Z,990.94
2019-02-28T17:21:45.199Z,990.64
2019-02-28T17:23:45.337Z,990.83
2019-02-28T17:25:44.883Z,990.75
2019-02-28T17:27:45.099Z,991.65
2019-02-28T17:29:44.932Z,991.11
2019-02-28T17:31:48.150Z,991.34
2019-02-28T17:33:46.628Z,991.44
2019-02-28T17:35:45.169Z,991.17
2019-02-28T17:37:44.885Z,990.90
2019-02-28T17:39:47.457Z,991.45
2019-02-28T17:41:45.817Z,991.42
2019-02-28T17:43:44.906Z,991.38
2019-02-28T17:45:47.275Z,991.19
2019-02-28T17:47:44.854Z,991.44
2019-02-28T17:49:45.043Z,990.81
2019-02-28T17:51:45.304Z,991.41
2019-02-28T17:53:45.809Z,991.55
2019-02-28T17:55:44.878Z,991.42
2019-02-28T17:57:45.097Z,991.21
2019-02-28T17:59:45.104Z,991.31
2019-02-28T18:01:44.925Z,991.31
2019-02-28T18:03:48.365Z,991.54
2019-02-28T18:05:45.144Z,991.38
2019-02-28T18:07:45.703Z,991.72
2019-02-28T18:09:47.725Z,991.39
2019-02-28T18:11:45.687Z,991.44
2019-02-28T18:13:45.105Z,991.36
2019-02-28T18:15:45.928Z,991.15
2019-02-28T18:17:44.875Z,991.46
2019-02-28T18:19:44.990Z,991.53
2019-02-28T18:21:45.139Z,991.89
2019-02-28T18:23:45.176Z,991.54
2019-02-28T18:25:45.054Z,991.41
2019-02-28T18:27:46.780Z,991.20
2019-02-28T18:29:44.984Z,991.24
2019-02-28T18:31:46.170Z,991.45
2019-02-28T18:33:45.737Z,991.66
2019-02-28T18:35:45.001Z,991.04
2019-02-28T18:37:45.018Z,991.19
2019-02-28T18:39:48.255Z,991.49
2019-02-28T18:41:45.359Z,991.46
2019-02-28T18:43:44.959Z,991.67
2019-02-28T18:45:45.114Z,991.25
2019-02-28T18:47:45.001Z,991.65
2019-02-28T18:49:45.202Z,991.64
2019-02-28T18:51:45.150Z,991.50
2019-02-28T18:53:45.012Z,991.49
2019-02-28T18:55:45.146Z,991.34
2019-02-28T18:57:45.095Z,991.33
2019-02-28T18:59:44.933Z,991.20
2019-02-28T19:01:45.163Z,991.45
2019-02-28T19:03:44.947Z,991.63
2019-02-28T19:05:45.193Z,991.66
2019-02-28T19:07:44.997Z,991.45
2019-02-28T19:09:45.223Z,991.40
2019-02-28T19:11:45.235Z,991.51
2019-02-28T19:13:45.163Z,991.17
2019-02-28T19:15:45.299Z,991.15
2019-02-28T19:17:45.165Z,991.47
2019-02-28T19:19:45.199Z,991.28
2019-02-28T19:21:45.284Z,991.25
2019-02-28T19:23:44.958Z,991.37
2019-02-28T19:25:45.141Z,991.70
2019-02-28T19:27:45.111Z,991.84
2019-02-28T19:29:45.059Z,991.42
2019-02-28T19:31:45.063Z,991.69
2019-02-28T19:33:44.926Z,992.04
2019-02-28T19:35:45.161Z,991.59
2019-02-28T19:37:45.068Z,991.32
2019-02-28T19:39:45.061Z,991.47
2019-02-28T19:41:45.303Z,991.42
2019-02-28T19:43:45.308Z,991.31
2019-02-28T19:45:45.121Z,991.87
2019-02-28T19:47:45.130Z,991.30
2019-02-28T19:49:44.893Z,991.29
2019-02-28T19:51:45.162Z,991.47
2019-02-28T19:53:44.907Z,991.22
2019-02-28T19:55:45.127Z,991.39
2019-02-28T19:57:46.006Z,990.99
2019-02-28T19:59:44.957Z,991.25
2019-02-28T20:01:45.501Z,991.19
2019-02-28T20:03:45.224Z,991.06
2019-02-28T20:05:45.026Z,991.17
2019-02-28T20:07:45.269Z,991.36
2019-02-28T20:09:45.156Z,991.19
2019-02-28T20:11:45.166Z,991.31
2019-02-28T20:13:45.380Z,990.92
2019-02-28T20:15:45.068Z,991.05
2019-02-28T20:17:44.935Z,991.09
2019-02-28T20:19:45.208Z,991.23
2019-02-28T20:21:45.424Z,990.85
2019-02-28T20:23:44.982Z,990.86
2019-02-28T20:25:45.177Z,991.00
2019-02-28T20:27:44.932Z,991.05
2019-02-28T20:29:44.942Z,991.37
2019-02-28T20:31:45.132Z,991.04
2019-02-28T20:33:44.779Z,991.04
2019-02-28T20:35:44.791Z,991.46
2019-02-28T20:37:44.910Z,991.14
2019-02-28T20:39:45.089Z,991.03
2019-02-28T20:41:45.031Z,991.05
2019-02-28T20:43:44.640Z,991.08
2019-02-28T20:45:45.083Z,991.10
2019-02-28T20:47:44.968Z,990.95
2019-02-28T20:49:44.778Z,990.82
2019-02-28T20:51:44.529Z,991.10
2019-02-28T20:53:44.966Z,990.98
2019-02-28T20:55:44.819Z,991.08
2019-02-28T20:57:44.614Z,991.36
2019-02-28T20:59:44.933Z,990.96
2019-02-28T21:01:44.801Z,991.06
2019-02-28T21:03:44.903Z,991.17
2019-02-28T21:05:44.975Z,991.12
2019-02-28T21:07:44.894Z,991.34
2019-02-28T21:09:44.856Z,991.17
2019-02-28T21:11:44.562Z,991.14
2019-02-28T21:13:44.816Z,990.96
2019-02-28T21:15:45.134Z,991.14
2019-02-28T21:17:44.731Z,991.03
2019-02-28T21:19:45.051Z,991.11
2019-02-28T21:21:44.835Z,991.15
2019-02-28T21:23:44.804Z,991.21
2019-02-28T21:25:45.081Z,990.92
2019-02-28T21:27:44.889Z,990.96
2019-02-28T21:29:44.804Z,991.14
2019-02-28T21:31:44.820Z,991.22
2019-02-28T21:33:44.561Z,991.11
2019-02-28T21:35:44.634Z,991.33
2019-02-28T21:37:44.643Z,990.93
2019-02-28T21:39:44.820Z,990.94
2019-02-28T21:41:44.669Z,990.83
2019-02-28T21:43:44.888Z,990.69
2019-02-28T21:45:44.843Z,991.23
2019-02-28T21:47:44.702Z,990.84
2019-02-28T21:49:45.128Z,990.81
2019-02-28T21:51:44.927Z,991.20
2019-02-28T21:53:44.734Z,990.92
2019-02-28T21:55:45.125Z,990.89
2019-02-28T21:57:45.116Z,990.38
2019-02-28T21:59:44.877Z,990.64
2019-02-28T22:01:44.854Z,990.68
2019-02-28T22:03:45.104Z,990.48
2019-02-28T22:05:45.117Z,990.73
2019-02-28T22:07:44.813Z,990.26
2019-02-28T22:09:44.589Z,990.29
2019-02-28T22:11:46.197Z,990.38
2019-02-28T22:13:45.136Z,990.67
2019-02-28T22:15:44.772Z,990.46
2019-02-28T22:17:44.812Z,990.51
2019-02-28T22:19:45.098Z,990.59
2019-02-28T22:21:44.910Z,990.22
2019-02-28T22:23:44.874Z,990.70
2019-02-28T22:25:44.931Z,990.48
2019-02-28T22:27:44.734Z,990.43
2019-02-28T22:29:44.950Z,990.49
2019-02-28T22:31:44.965Z,990.30
2019-02-28T22:33:44.871Z,990.26
2019-02-28T22:35:44.891Z,990.38
2019-02-28T22:37:45.200Z,990.42
2019-02-28T22:39:44.985Z,990.25
2019-02-28T22:41:45.029Z,989.89
2019-02-28T22:43:44.822Z,990.05
2019-02-28T22:45:44.847Z,990.52
2019-02-28T22:47:44.650Z,990.43
2019-02-28T22:49:45.017Z,990.05
2019-02-28T22:51:44.713Z,990.52
2019-02-28T22:53:44.986Z,990.47
2019-02-28T22:55:46.560Z,990.42
2019-02-28T22:57:44.913Z,990.21
2019-02-28T22:59:44.917Z,990.27
2019-02-28T23:01:44.722Z,990.07
2019-02-28T23:03:44.710Z,989.98
2019-02-28T23:05:44.869Z,989.83
2019-02-28T23:07:44.961Z,989.94
2019-02-28T23:09:44.978Z,990.28
2019-02-28T23:11:45.098Z,989.95
2019-02-28T23:13:44.692Z,990.09
2019-02-28T23:15:44.896Z,989.77
2019-02-28T23:17:44.924Z,989.97
2019-02-28T23:19:45.143Z,989.97
2019-02-28T23:21:44.737Z,989.94
2019-02-28T23:23:44.730Z,989.51
2019-02-28T23:25:44.868Z,990.07
2019-02-28T23:27:44.847Z,990.30
2019-02-28T23:29:44.892Z,989.99
2019-02-28T23:31:45.110Z,989.77
2019-02-28T23:33:44.917Z,989.79
2019-02-28T23:35:44.683Z,989.93
2019-02-28T23:37:44.943Z,989.44
2019-02-28T23:39:44.720Z,989.46
2019-02-28T23:41:44.757Z,989.59
2019-02-28T23:43:45.172Z,989.46
2019-02-28T23:45:45.147Z,989.60
2019-02-28T23:47:44.993Z,989.53
2019-02-28T23:49:44.757Z,989.34
2019-02-28T23:51:45.123Z,989.45
2019-02-28T23:53:44.946Z,989.51
2019-02-28T23:55:45.146Z,989.28
2019-02-28T23:57:45.150Z,989.42
2019-02-28T23:59:44.653Z,989.37
